sensor_id;sensor_type;location;lat;lon;timestamp;pressure;altitude;pressure_sealevel;temperature
8362;BMP180;4218;48.326;14.304;2023-02-26T00:02:21;97369.00;;;0.40
8362;BMP180;4218;48.326;14.304;2023-02-26T00:04:46;97364.00;;;0.40
8362;BMP180;4218;48.326;14.304;2023-02-26T00:07:12;97375.00;;;0.40
8362;BMP180;4218;48.326;14.304;2023-02-26T00:09:37;97375.00;;;0.40
8362;BMP180;4218;48.326;14.304;2023-02-26T00:12:03;97367.00;;;0.30
8362;BMP180;4218;48.326;14.304;2023-02-26T00:14:29;97383.00;;;0.20
8362;BMP180;4218;48.326;14.304;2023-02-26T00:19:28;97382.00;;;0.30
8362;BMP180;4218;48.326;14.304;2023-02-26T00:21:54;97393.00;;;0.30
8362;BMP180;4218;48.326;14.304;2023-02-26T00:24:20;97391.00;;;0.30
8362;BMP180;4218;48.326;14.304;2023-02-26T00:26:45;97387.00;;;0.20
8362;BMP180;4218;48.326;14.304;2023-02-26T00:29:11;97414.00;;;0.20
8362;BMP180;4218;48.326;14.304;2023-02-26T00:31:36;97402.00;;;0.00
8362;BMP180;4218;48.326;14.304;2023-02-26T00:34:02;97394.00;;;0.00
8362;BMP180;4218;48.326;14.304;2023-02-26T00:41:59;97401.00;;;0.00
8362;BMP180;4218;48.326;14.304;2023-02-26T00:44:25;97419.00;;;0.00
8362;BMP180;4218;48.326;14.304;2023-02-26T00:52:12;97420.00;;;-0.30
8362;BMP180;4218;48.326;14.304;2023-02-26T00:54:38;97410.00;;;-0.30
8362;BMP180;4218;48.326;14.304;2023-02-26T00:57:03;97421.00;;;-0.30
8362;BMP180;4218;48.326;14.304;2023-02-26T00:59:31;97427.00;;;-0.40
8362;BMP180;4218;48.326;14.304;2023-02-26T01:01:56;97420.00;;;-0.30
8362;BMP180;4218;48.326;14.304;2023-02-26T01:04:23;97421.00;;;-0.50
8362;BMP180;4218;48.326;14.304;2023-02-26T01:06:51;97420.00;;;-0.50
8362;BMP180;4218;48.326;14.304;2023-02-26T01:11:50;97420.00;;;-0.60
8362;BMP180;4218;48.326;14.304;2023-02-26T01:14:16;97427.00;;;-0.40
8362;BMP180;4218;48.326;14.304;2023-02-26T01:21:55;97419.00;;;-0.70
8362;BMP180;4218;48.326;14.304;2023-02-26T01:24:27;97407.00;;;-0.60
8362;BMP180;4218;48.326;14.304;2023-02-26T01:26:55;97418.00;;;-0.80
8362;BMP180;4218;48.326;14.304;2023-02-26T01:29:25;97413.00;;;-0.60
8362;BMP180;4218;48.326;14.304;2023-02-26T01:32:18;97424.00;;;-0.80
8362;BMP180;4218;48.326;14.304;2023-02-26T01:35:00;97421.00;;;-0.90
8362;BMP180;4218;48.326;14.304;2023-02-26T01:37:49;97443.00;;;-0.70
8362;BMP180;4218;48.326;14.304;2023-02-26T01:42:44;97433.00;;;-0.50
8362;BMP180;4218;48.326;14.304;2023-02-26T01:45:16;97432.00;;;-0.30
8362;BMP180;4218;48.326;14.304;2023-02-26T01:47:57;97429.00;;;-0.30
8362;BMP180;4218;48.326;14.304;2023-02-26T01:50:25;97430.00;;;-0.20
8362;BMP180;4218;48.326;14.304;2023-02-26T01:55:45;97425.00;;;-0.50
8362;BMP180;4218;48.326;14.304;2023-02-26T01:58:11;97433.00;;;-0.50
8362;BMP180;4218;48.326;14.304;2023-02-26T02:00:37;97438.00;;;-0.60
8362;BMP180;4218;48.326;14.304;2023-02-26T02:03:04;97437.00;;;-0.50
8362;BMP180;4218;48.326;14.304;2023-02-26T02:05:40;97445.00;;;-0.30
8362;BMP180;4218;48.326;14.304;2023-02-26T02:08:07;97443.00;;;-0.40
8362;BMP180;4218;48.326;14.304;2023-02-26T02:10:32;97455.00;;;-0.60
8362;BMP180;4218;48.326;14.304;2023-02-26T02:15:50;97466.00;;;-0.70
8362;BMP180;4218;48.326;14.304;2023-02-26T02:23:47;97469.00;;;-0.60
8362;BMP180;4218;48.326;14.304;2023-02-26T02:29:47;97467.00;;;-0.50
8362;BMP180;4218;48.326;14.304;2023-02-26T02:34:58;97472.00;;;-0.60
8362;BMP180;4218;48.326;14.304;2023-02-26T02:37:46;97455.00;;;-0.50
8362;BMP180;4218;48.326;14.304;2023-02-26T02:40:23;97467.00;;;-0.50
8362;BMP180;4218;48.326;14.304;2023-02-26T02:42:54;97472.00;;;-0.50
8362;BMP180;4218;48.326;14.304;2023-02-26T02:48:02;97477.00;;;-0.60
8362;BMP180;4218;48.326;14.304;2023-02-26T02:50:54;97487.00;;;-0.50
8362;BMP180;4218;48.326;14.304;2023-02-26T02:53:46;97492.00;;;-0.60
8362;BMP180;4218;48.326;14.304;2023-02-26T02:56:24;97490.00;;;-0.70
8362;BMP180;4218;48.326;14.304;2023-02-26T02:59:17;97504.00;;;-0.60
8362;BMP180;4218;48.326;14.304;2023-02-26T03:02:12;97490.00;;;-0.50
8362;BMP180;4218;48.326;14.304;2023-02-26T03:04:51;97519.00;;;-0.60
8362;BMP180;4218;48.326;14.304;2023-02-26T03:07:16;97501.00;;;-0.60
8362;BMP180;4218;48.326;14.304;2023-02-26T03:09:46;97500.00;;;-0.70
8362;BMP180;4218;48.326;14.304;2023-02-26T03:12:14;97505.00;;;-0.80
8362;BMP180;4218;48.326;14.304;2023-02-26T03:14:41;97524.00;;;-0.80
8362;BMP180;4218;48.326;14.304;2023-02-26T03:17:32;97523.00;;;-0.60
8362;BMP180;4218;48.326;14.304;2023-02-26T03:31:23;97535.00;;;-0.90
8362;BMP180;4218;48.326;14.304;2023-02-26T03:34:07;97545.00;;;-0.90
8362;BMP180;4218;48.326;14.304;2023-02-26T03:36:44;97554.00;;;-0.90
8362;BMP180;4218;48.326;14.304;2023-02-26T03:39:27;97550.00;;;-1.00
8362;BMP180;4218;48.326;14.304;2023-02-26T03:45:00;97550.00;;;-1.00
8362;BMP180;4218;48.326;14.304;2023-02-26T03:47:26;97568.00;;;-1.00
8362;BMP180;4218;48.326;14.304;2023-02-26T03:50:16;97575.00;;;-1.00
8362;BMP180;4218;48.326;14.304;2023-02-26T03:52:46;97573.00;;;-1.10
8362;BMP180;4218;48.326;14.304;2023-02-26T03:55:24;97579.00;;;-1.10
8362;BMP180;4218;48.326;14.304;2023-02-26T03:57:50;97576.00;;;-1.20
8362;BMP180;4218;48.326;14.304;2023-02-26T04:00:16;97584.00;;;-1.10
8362;BMP180;4218;48.326;14.304;2023-02-26T04:05:17;97587.00;;;-1.10
8362;BMP180;4218;48.326;14.304;2023-02-26T04:07:45;97586.00;;;-1.10
8362;BMP180;4218;48.326;14.304;2023-02-26T04:10:14;97596.00;;;-1.20
8362;BMP180;4218;48.326;14.304;2023-02-26T04:12:41;97575.00;;;-1.20
8362;BMP180;4218;48.326;14.304;2023-02-26T04:15:07;97590.00;;;-1.00
8362;BMP180;4218;48.326;14.304;2023-02-26T04:17:33;97603.00;;;-1.20
8362;BMP180;4218;48.326;14.304;2023-02-26T04:19:58;97587.00;;;-1.30
8362;BMP180;4218;48.326;14.304;2023-02-26T04:22:24;97599.00;;;-1.20
8362;BMP180;4218;48.326;14.304;2023-02-26T04:24:50;97606.00;;;-1.20
8362;BMP180;4218;48.326;14.304;2023-02-26T04:27:18;97614.00;;;-1.20
8362;BMP180;4218;48.326;14.304;2023-02-26T04:29:47;97603.00;;;-1.10
8362;BMP180;4218;48.326;14.304;2023-02-26T04:32:12;97605.00;;;-1.10
8362;BMP180;4218;48.326;14.304;2023-02-26T04:34:39;97601.00;;;-1.10
8362;BMP180;4218;48.326;14.304;2023-02-26T04:37:08;97610.00;;;-1.00
8362;BMP180;4218;48.326;14.304;2023-02-26T04:39:33;97620.00;;;-1.10
8362;BMP180;4218;48.326;14.304;2023-02-26T04:42:02;97627.00;;;-1.10
8362;BMP180;4218;48.326;14.304;2023-02-26T04:44:29;97634.00;;;-1.10
8362;BMP180;4218;48.326;14.304;2023-02-26T04:46:57;97624.00;;;-1.00
8362;BMP180;4218;48.326;14.304;2023-02-26T04:49:22;97639.00;;;-0.80
8362;BMP180;4218;48.326;14.304;2023-02-26T04:51:48;97641.00;;;-0.70
8362;BMP180;4218;48.326;14.304;2023-02-26T04:54:14;97631.00;;;-0.70
8362;BMP180;4218;48.326;14.304;2023-02-26T04:56:39;97644.00;;;-0.60
8362;BMP180;4218;48.326;14.304;2023-02-26T04:59:05;97630.00;;;-0.60
8362;BMP180;4218;48.326;14.304;2023-02-26T05:01:31;97646.00;;;-0.60
8362;BMP180;4218;48.326;14.304;2023-02-26T05:03:56;97648.00;;;-0.60
8362;BMP180;4218;48.326;14.304;2023-02-26T05:06:22;97649.00;;;-0.60
8362;BMP180;4218;48.326;14.304;2023-02-26T05:08:48;97656.00;;;-0.60
8362;BMP180;4218;48.326;14.304;2023-02-26T05:11:13;97650.00;;;-0.80
8362;BMP180;4218;48.326;14.304;2023-02-26T05:13:41;97672.00;;;-0.70
8362;BMP180;4218;48.326;14.304;2023-02-26T05:16:07;97663.00;;;-0.60
8362;BMP180;4218;48.326;14.304;2023-02-26T05:18:33;97668.00;;;-0.80
8362;BMP180;4218;48.326;14.304;2023-02-26T05:21:03;97667.00;;;-0.80
8362;BMP180;4218;48.326;14.304;2023-02-26T05:23:29;97675.00;;;-0.70
8362;BMP180;4218;48.326;14.304;2023-02-26T05:25:56;97666.00;;;-0.50
8362;BMP180;4218;48.326;14.304;2023-02-26T05:28:24;97680.00;;;-0.50
8362;BMP180;4218;48.326;14.304;2023-02-26T05:30:55;97674.00;;;-0.50
8362;BMP180;4218;48.326;14.304;2023-02-26T05:33:24;97682.00;;;-0.50
8362;BMP180;4218;48.326;14.304;2023-02-26T05:35:50;97683.00;;;-0.40
8362;BMP180;4218;48.326;14.304;2023-02-26T05:38:19;97687.00;;;-0.60
8362;BMP180;4218;48.326;14.304;2023-02-26T05:40:47;97685.00;;;-0.70
8362;BMP180;4218;48.326;14.304;2023-02-26T05:43:13;97689.00;;;-0.80
8362;BMP180;4218;48.326;14.304;2023-02-26T05:45:41;97704.00;;;-0.90
8362;BMP180;4218;48.326;14.304;2023-02-26T05:48:06;97705.00;;;-1.00
8362;BMP180;4218;48.326;14.304;2023-02-26T05:50:32;97699.00;;;-0.90
8362;BMP180;4218;48.326;14.304;2023-02-26T05:52:57;97712.00;;;-0.80
8362;BMP180;4218;48.326;14.304;2023-02-26T05:55:23;97708.00;;;-0.80
8362;BMP180;4218;48.326;14.304;2023-02-26T05:57:49;97711.00;;;-0.80
8362;BMP180;4218;48.326;14.304;2023-02-26T06:00:16;97702.00;;;-0.80
8362;BMP180;4218;48.326;14.304;2023-02-26T06:02:41;97710.00;;;-0.70
8362;BMP180;4218;48.326;14.304;2023-02-26T06:05:09;97692.00;;;-0.80
8362;BMP180;4218;48.326;14.304;2023-02-26T06:07:34;97700.00;;;-0.80
8362;BMP180;4218;48.326;14.304;2023-02-26T06:10:00;97723.00;;;-0.80
8362;BMP180;4218;48.326;14.304;2023-02-26T06:12:25;97720.00;;;-0.60
8362;BMP180;4218;48.326;14.304;2023-02-26T06:14:56;97732.00;;;-0.60
8362;BMP180;4218;48.326;14.304;2023-02-26T06:17:22;97736.00;;;-0.60
8362;BMP180;4218;48.326;14.304;2023-02-26T06:19:48;97732.00;;;-0.50
8362;BMP180;4218;48.326;14.304;2023-02-26T06:22:17;97762.00;;;-0.40
8362;BMP180;4218;48.326;14.304;2023-02-26T06:24:42;97758.00;;;-0.50
8362;BMP180;4218;48.326;14.304;2023-02-26T06:27:08;97755.00;;;-0.50
8362;BMP180;4218;48.326;14.304;2023-02-26T06:29:33;97771.00;;;-0.60
8362;BMP180;4218;48.326;14.304;2023-02-26T06:32:01;97779.00;;;-0.40
8362;BMP180;4218;48.326;14.304;2023-02-26T06:34:27;97778.00;;;-0.50
8362;BMP180;4218;48.326;14.304;2023-02-26T06:36:55;97784.00;;;-0.50
8362;BMP180;4218;48.326;14.304;2023-02-26T06:39:23;97784.00;;;-0.50
8362;BMP180;4218;48.326;14.304;2023-02-26T06:41:49;97789.00;;;-0.40
8362;BMP180;4218;48.326;14.304;2023-02-26T06:44:14;97785.00;;;-0.40
8362;BMP180;4218;48.326;14.304;2023-02-26T06:46:40;97798.00;;;-0.30
8362;BMP180;4218;48.326;14.304;2023-02-26T06:49:14;97801.00;;;-0.10
8362;BMP180;4218;48.326;14.304;2023-02-26T11:34:46;98066.00;;;2.60
8362;BMP180;4218;48.326;14.304;2023-02-26T14:37:06;98162.00;;;2.20
8362;BMP180;4218;48.326;14.304;2023-02-26T19:22:47;98483.00;;;0.10
